Home > Products > Valid Products > TAF

000
FTUS42 KILM 252000 AAA
TAFILM
TAF AMD
KILM 252030Z 2521/2618 28004KT P6SM -RA SCT012 OVC090
      TEMPO 2521/2524 BKN012
     FM260000 03007KT 4SM RA BR OVC006
     FM260400 03009KT 2SM +RA BR BKN004
     FM261400 33012G20KT 3SM -RA BR BKN007=



000
FTUS42 KILM 251900 AAA
TAFCRE
TAF AMD
KCRE 251941Z 2520/2618 23005KT 5SM -RA SCT008 BKN050 OVC100
      TEMPO 2520/2523 BKN008
     FM252300 03007KT 4SM RA BR OVC006
     FM260300 03009KT 2SM +RA BR BKN004
     FM261500 33012G20KT 3SM -RA BR BKN007=



000
FTUS42 KILM 251700 CCA
TAFCRE
TAF COR
KCRE 251721Z 2518/2618 23005KT 5SM -RA BKN007 BKN050
     FM252000 28004KT 4SM -RA BKN007
     FM252300 03007KT 4SM RA BR OVC006
     FM260300 03009KT 2SM +RA BR BKN004
     FM261500 33012G20KT 3SM -RA BR BKN007=



000
FTUS42 KILM 251700 CCA
TAFMYR
TAF COR
KMYR 251721Z 2518/2618 23005KT 3SM -RA BR BKN004 BKN050
      TEMPO 2518/2520 2SM RA BR BKN007
     FM252000 28004KT 4SM -RA BKN007
     FM252300 03007KT 4SM RA BR OVC006
     FM260300 03009KT 2SM +RA BR BKN004
     FM261500 33012G20KT 3SM -RA BR BKN007=



000
FTUS42 KILM 251700
TAFLBT
TAF
KLBT 251720Z 2518/2618 26006KT 6SM -RA BKN014
     FM252100 02005KT 4SM -RA BR BKN008
     FM260400 01009KT 3SM RA BR BKN006
     FM261300 35012G19KT 6SM -RA BR BKN012=



000
FTUS42 KILM 251700
TAFMYR
TAF
KMYR 251720Z 2518/2618 23005KT 3SM -RA BR SCT007 BKN050
      TEMPO 2518/2520 2SM RA BR BKN007
     FM252000 28004KT 4SM -RA BKN007
     FM252300 03007KT 4SM RA BR OVC006
     FM260300 03009KT 2SM +RA BR BKN004
     FM261500 33012G20KT 3SM -RA BR BKN007=



000
FTUS42 KILM 251700
TAFFLO
TAF
KFLO 251720Z 2518/2618 VRB05KT 5SM -RA BKN007
     FM260300 01009KT 2SM RA BR BKN004
     FM261400 34014G20KT 6SM -RA BR BKN012=



000
FTUS42 KILM 251700
TAFILM
TAF
KILM 251720Z 2518/2618 23005KT 6SM -SHRA SCT009 BKN050
      TEMPO 2518/2520 BKN009
     FM252000 28004KT 4SM -RA BKN008
     FM260000 03007KT 4SM RA BR OVC006
     FM260400 03009KT 2SM +RA BR BKN004
     FM261400 33012G20KT 3SM -RA BR BKN007=



000
FTUS42 KILM 251700
TAFCRE
TAF
KCRE 251720Z 2518/2618 23005KT 5SM -RA SCT007 BKN050
     FM252000 28004KT 4SM -RA BKN007
     FM252300 03007KT 4SM RA BR OVC006
     FM260300 03009KT 2SM +RA BR BKN004
     FM261500 33012G20KT 3SM -RA BR BKN007=



000
FTUS42 KILM 251600 AAC
TAFILM
TAF AMD
KILM 251638Z 2517/2612 23005KT 6SM -SHRA BKN050
     FM251700 28004KT 3SM SHRA BKN008
     FM260000 03007KT 4SM RA BR OVC006=



000
FTUS42 KILM 251600 AAC
TAFILM
TAF AMD
KILM 251638Z 2517/2612 23005KT 6SM -SHRA BKN050
     FM251700 28004KT 3SM SHRA BKN008
     FM260000 03007KT 4SM RA BR OVC006=



000
FTUS42 KILM 251500 AAB
TAFILM
TAF AMD
KILM 251534Z 2516/2612 23005KT 6SM -SHRA BKN050
     FM251730 28004KT 3SM SHRA BKN008
     FM260000 03007KT 4SM RA BR OVC006=



000
FTUS42 KILM 251500 AAA
TAFFLO
TAF AMD
KFLO 251534Z 2516/2612 26006KT 6SM -RA BKN006
     FM260000 01009KT 4SM RA BR BKN008=



000
FTUS42 KILM 251400 AAB
TAFCRE
TAF AMD
KCRE 251407Z 2514/2612 VRB03KT 4SM SHRA SCT040 BKN070
     FM251430 23005KT 3SM SHRA BKN026
     FM251600 28004KT 3SM SHRA BKN008
     FM260000 03007KT 4SM RA BR OVC006=



000
FTUS42 KILM 251400 AAA
TAFILM
TAF AMD
KILM 251406Z 2514/2612 VRB03KT P6SM VCSH SCT040 BKN100
     FM251530 23005KT 5SM -SHRA BKN026
     FM251700 28004KT 3SM SHRA BKN008
     FM260000 03007KT 4SM RA BR OVC006=



000
FTUS42 KILM 251300 AAA
TAFMYR
TAF AMD
KMYR 251326Z 2513/2612 VRB03KT P6SM -RA BKN050
     FM251400 23005KT 4SM SHRA BKN016
     FM251500 28004KT 3SM SHRA BKN008
     FM260000 03007KT 4SM RA BR OVC006=



000
FTUS42 KILM 251300 AAA
TAFCRE
TAF AMD
KCRE 251325Z 2513/2612 VRB03KT P6SM VCSH SCT040 BKN100
     FM251430 23005KT 4SM SHRA BKN016
     FM251600 28004KT 3SM SHRA BKN008
     FM260000 03007KT 4SM RA BR OVC006=



000
FTUS42 KILM 251100
TAFFLO
TAF
KFLO 251120Z 2512/2612 VRB03KT 3SM RA BR SCT015 OVC060
     FM251300 26006KT 2SM RA BKN016
     FM260000 01009KT 4SM RA BR BKN008=



000
FTUS42 KILM 251100
TAFCRE
TAF
KCRE 251120Z 2512/2612 VRB03KT P6SM VCSH SCT040 BKN100
     FM251300 23005KT 4SM SHRA BKN016
     FM251400 28004KT 3SM SHRA BKN008
     FM260000 03007KT 4SM RA BR OVC006=



000
FTUS42 KILM 251100
TAFLBT
TAF
KLBT 251120Z 2512/2612 VRB03KT 3SM RA BR SCT015 OVC060
     FM251400 26006KT 2SM RA BKN016
     FM260000 01009KT 4SM RA BR BKN008=



000
FTUS42 KILM 251100
TAFILM
TAF
KILM 251120Z 2512/2612 VRB03KT P6SM VCSH SCT040 BKN100
     FM251400 23005KT 4SM SHRA BKN016
     FM251500 28004KT 3SM SHRA BKN008
     FM260000 03007KT 4SM RA BR OVC006=



000
FTUS42 KILM 251100
TAFMYR
TAF
KMYR 251120Z 2512/2612 VRB03KT P6SM VCSH SCT040 BKN100
     FM251300 23005KT 4SM SHRA BKN016
     FM251400 28004KT 3SM SHRA BKN008
     FM260000 03007KT 4SM RA BR OVC006=



000
FTUS42 KILM 251000 AAB
TAFCRE
TAF AMD
KCRE 251029Z 2510/2606 22006KT 6SM BR VCSH BKN050
     FM251130 VRB03KT 3SM -RA BR SCT006 BKN015
     FM251500 33006KT 5SM -RA BKN008 BKN020 OVC050
     FM260000 03006KT 4SM RA BR OVC006=



000
FTUS42 KILM 251000 AAB
TAFMYR
TAF AMD
KMYR 251029Z 2510/2606 21006KT 6SM BR VCSH BKN050
     FM251130 VRB03KT 5SM -RA BR SCT006 BKN015
     FM251500 32007KT 6SM -RA BKN008 BKN020 OVC050
     FM260000 02008KT 4SM RA BR OVC006
      AMD LTD TO CLD VIS AND WIND TIL 251100=



000
FTUS42 KILM 250900 AAA
TAFMYR
TAF AMD
KMYR 250940Z 2510/2606 21006KT 6SM BR VCSH BKN050
     FM251000 VRB03KT 5SM -RA BR SCT006 BKN015
     FM251500 32007KT 6SM -RA BKN008 BKN020 OVC050
     FM260000 02008KT 4SM RA BR OVC006
      AMD LTD TO CLD VIS AND WIND TIL 251100=



000
FTUS42 KILM 250900 AAA
TAFCRE
TAF AMD
KCRE 250939Z 2510/2606 22006KT 6SM BR VCSH BKN050
     FM251000 VRB03KT 3SM -RA BR SCT006 BKN015
     FM251500 33006KT 5SM -RA BKN008 BKN020 OVC050
     FM260000 03006KT 4SM RA BR OVC006=



000
FTUS42 KILM 250900 AAA
TAFILM
TAF AMD
KILM 250938Z 2510/2606 22006KT 6SM BR VCSH BKN080
     FM251200 VRB03KT 4SM -RA BR SCT006 BKN015
     FM251500 33005KT 6SM -RA BKN008 BKN020 OVC050
     FM260000 03007KT 4SM RA BR OVC006=



000
FTUS42 KILM 250500
TAFFLO
TAF
KFLO 250525Z 2506/2606 23005KT P6SM VCSH SCT070 BKN100
     FM250900 VRB03KT 5SM -RA BR SCT015 OVC060
     FM251400 33006KT 6SM -RA SCT008 BKN020
     FM260000 01009KT 4SM RA BR BKN008=



000
FTUS42 KILM 250500
TAFCRE
TAF
KCRE 250525Z 2506/2606 22006KT 6SM BR VCSH BKN050
     FM250900 VRB03KT 3SM -RA BR SCT006 BKN015
     FM251500 33006KT 5SM -RA BKN008 BKN020 OVC050
     FM260000 03006KT 4SM RA BR OVC006=



000
FTUS42 KILM 250500
TAFMYR
TAF
KMYR 250525Z 2506/2606 21006KT 6SM BR VCSH BKN050
     FM250900 VRB03KT 5SM -RA BR SCT006 BKN015
     FM251500 32007KT 6SM -RA BKN008 BKN020 OVC050
     FM260000 02008KT 4SM RA BR OVC006
      AMD LTD TO CLD VIS AND WIND TIL 251100=



000
FTUS42 KILM 250500
TAFILM
TAF
KILM 250525Z 2506/2606 22006KT 6SM BR VCSH BKN050
     FM250900 VRB03KT 4SM -RA BR SCT006 BKN015
     FM251500 33005KT 6SM -RA BKN008 BKN020 OVC050
     FM260000 03007KT 4SM RA BR OVC006=



000
FTUS42 KILM 250500
TAFLBT
TAF
KLBT 250525Z 2506/2606 22005KT P6SM VCSH SCT070 BKN100
     FM250900 VRB02KT 5SM -RA BR SCT015 OVC060
     FM251400 33006KT 6SM -RA SCT008 BKN020
     FM260000 03008KT 4SM RA BR BKN008=



000
FTUS42 KILM 250300 AAA
TAFILM
TAF AMD
KILM 250301Z 2503/2524 21007KT P6SM FEW008 BKN050
     FM250900 25004KT 3SM -RA BR OVC004
     FM251600 32005KT 5SM -RA BKN007 OVC015=



000
FTUS42 KILM 250200 AAA
TAFMYR
TAF AMD
KMYR 250202Z 2502/2524 20007KT 6SM BR OVC060
     FM250600 20005KT 4SM -RA BR OVC004
     FM251600 33007KT 5SM -RA BKN007 OVC015
      AMD LTD TO CLD VIS AND WIND 2504/2511=



000
FTUS42 KILM 250100 AAA
TAFCRE
TAF AMD
KCRE 250125Z 2501/2524 21008KT 5SM BR FEW005 BKN050
     FM250600 24004KT 3SM -RA BR OVC004
     FM251600 34006KT 5SM -RA BKN007 OVC015=



000
FTUS42 KILM 250000 CCB
TAFMYR
TAF COR
KMYR 250028Z 2500/2524 21009KT 4SM BR SCT002 OVC030
      TEMPO 2502/2505 2SM BR BKN002
     FM250500 20005KT 2SM -RA BR OVC004
     FM251600 33007KT 5SM -RA BKN007 OVC015
      AMD LTD TO CLD VIS AND WIND 2504/2511=



000
FTUS42 KILM 250000 CCA
TAFILM
TAF COR
KILM 250024Z 2500/2524 21009KT P6SM FEW008 BKN030
     FM250300 23007KT 6SM BR BKN008 OVC020
     FM250600 25004KT 3SM -RA BR OVC004
     FM251600 32005KT 5SM -RA BKN007 OVC015=



000
FTUS42 KILM 250000 CCA
TAFLBT
TAF COR
KLBT 250002Z 2500/2524 20009KT P6SM VCSH OVC080
      TEMPO 2500/2502 6SM SHRA BKN050
     FM250800 25003KT 5SM -RA BR BKN009 OVC015
     FM251500 33006KT 6SM -RA SCT009 BKN020=



000
FTUS42 KILM 242300 CCA
TAFFLO
TAF COR
KFLO 242359Z 2500/2524 22009KT P6SM VCSH OVC080
      TEMPO 2500/2501 6SM TSRA SCT050CB
     FM250900 27003KT 5SM -RA BR BKN009 OVC015
     FM251500 34006KT 6SM -RA SCT009 BKN020=



000
FTUS42 KILM 242300 CCA
TAFMYR
TAF COR
KMYR 242358Z 2500/2524 21009KT 3SM BR BKN005 OVC020
      TEMPO 2500/2502 1SM BR VV002
     FM250500 20005KT 2SM -RA BR OVC004
     FM251600 33007KT 5SM -RA BKN007 OVC015
      AMD LTD TO CLD VIS AND WIND 2504/2511=



000
FTUS42 KILM 242300
TAFMYR
TAF
KMYR 242324Z 2500/2524 21009KT 3SM BR BKN005 OVC020
      TEMPO 2500/2502 1/2SM FG VV002
     FM250500 20005KT 2SM -RA BR OVC004
     FM251600 33007KT 5SM -RA BKN007 OVC015
      AMD LTD TO CLD VIS AND WIND 2504/2511=



000
FTUS42 KILM 242300
TAFCRE
TAF
KCRE 242324Z 2500/2524 21008KT 3SM BR BKN003 OVC020
      TEMPO 2500/2502 1SM BR VV002
     FM250500 24004KT 1SM -RA BR OVC003
     FM251600 34006KT 5SM -RA BKN007 OVC015=



000
FTUS42 KILM 242300
TAFILM
TAF
KILM 242324Z 2500/2524 22009KT P6SM SCT008 BKN030
     FM250200 23007KT 6SM BR BKN008 OVC020
     FM250600 25004KT 3SM -RA BR OVC004
     FM251600 32005KT 5SM -RA BKN007 OVC015=



000
FTUS42 KILM 242300
TAFLBT
TAF
KLBT 242324Z 2500/2524 20005KT P6SM VCSH SCT040 OVC080
      TEMPO 2501/2503 5SM SHRA BKN010
     FM250800 25003KT 5SM -RA BR BKN009 OVC015
     FM251500 33006KT 6SM -RA SCT009 BKN020=



000
FTUS42 KILM 242300
TAFFLO
TAF
KFLO 242324Z 2500/2524 21007KT P6SM VCSH SCT040 OVC080
      TEMPO 2500/2502 5SM SHRA BKN010
     FM250900 27003KT 5SM -RA BR BKN009 OVC015
     FM251500 34006KT 6SM -RA SCT009 BKN020=



000
FTUS42 KILM 242100 AAA
TAFMYR
TAF AMD
KMYR 242127Z 2421/2518 20011KT 1 1/2SM BR BKN005
     FM250000 20010KT 4SM BR BKN003 OVC012
     FM250500 20005KT 2SM -RA BR BKN004=



000
FTUS42 KILM 242100 AAA
TAFMYR
TAF AMD
KMYR 242127Z 2421/2518 20011KT 1 1/2SM BR BKN005
     FM250000 20010KT 4SM BR BKN003 OVC012
     FM250500 20005KT 2SM -RA BR BKN004=



000
FTUS42 KILM 242100 AAA
TAFCRE
TAF AMD
KCRE 242126Z 2421/2518 22012KT 3/4SM BR BKN003
      TEMPO 2421/2423 1/4SM FG VV002
     FM250000 20010KT 4SM BR BKN003 OVC012
     FM250500 20005KT 2SM -RA BR BKN004=



000
FTUS42 KILM 242100 AAA
TAFCRE
TAF AMD
KCRE 242126Z 2421/2518 22012KT 3/4SM BR BKN003
      TEMPO 2421/2423 1/4SM FG VV002
     FM250000 20010KT 4SM BR BKN003 OVC012
     FM250500 20005KT 2SM -RA BR BKN004=



000
FTUS42 KILM 242000 AAA
TAFLBT
TAF AMD
KLBT 242009Z 2420/2518 21007KT 6SM BR VCSH FEW015 BKN050
     FM250000 20010KT 3SM BR BKN007 OVC015
     FM251300 33006KT 2SM -RA BR BKN005=



000
FTUS42 KILM 242000 AAA
TAFFLO
TAF AMD
KFLO 242008Z 2420/2518 21008KT 6SM BR VCSH FEW010 BKN070
     FM250000 20010KT 3SM BR BKN007 OVC015
     FM251300 34006KT 2SM -RA BR BKN004=



000
FTUS42 KILM 241700 CCA
TAFFLO
TAF COR
KFLO 241721Z 2418/2518 21008KT 6SM BR VCSH BKN010
      TEMPO 2418/2421 BKN008
     FM242100 22006KT 6SM BR BKN007 OVC015
     FM250000 20010KT 3SM BR BKN005 OVC025
     FM251300 34006KT 2SM -RA BR BKN004=



000
FTUS42 KILM 241700
TAFMYR
TAF
KMYR 241720Z 2418/2518 21011G18KT 2SM BR VCSH BKN004 OVC014
      TEMPO 2419/2422 2SM RA BR BKN007
     FM250000 20010KT 4SM BR BKN003 OVC012
     FM250500 20005KT 2SM -RA BR BKN004=



000
FTUS42 KILM 241700
TAFILM
TAF
KILM 241720Z 2418/2518 21011G18KT P6SM VCSH SCT007 OVC014
      TEMPO 2419/2422 2SM RA BR BKN007
     FM250000 20010KT 4SM BR BKN003 OVC012
     FM250500 20005KT 4SM -RA BR BKN004=



000
FTUS42 KILM 241700
TAFCRE
TAF
KCRE 241720Z 2418/2518 21011G18KT 3SM BR VCSH BKN004 OVC014
      TEMPO 2419/2422 2SM RA BR BKN007
     FM250000 20010KT 4SM BR BKN003 OVC012
     FM250500 20005KT 2SM -RA BR BKN004=



000
FTUS42 KILM 241700
TAFFLO
TAF
KFLO 241720Z 2418/2518 21008KT 6SM BR VCSH BKN008
     FM242100 22006KT 6SM BR BKN007 OVC015
     FM250000 20010KT 3SM BR BKN005 OVC025
     FM251300 34006KT 2SM -RA BR BKN004=



000
FTUS42 KILM 241700
TAFLBT
TAF
KLBT 241720Z 2418/2518 21008KT 6SM BR VCSH BKN014
     FM242200 22006KT 6SM BR BKN007 OVC015
     FM250000 20010KT 3SM BR BKN005 OVC025
     FM251300 33006KT 2SM -RA BR BKN005=



000
FTUS42 KILM 241500 AAA
TAFLBT
TAF AMD
KLBT 241523Z 2415/2512 20006KT P6SM VCSH SCT007 BKN030
     FM241700 22012G20KT P6SM VCSH BKN006
     FM242100 22006KT 6SM BR SCT007 OVC015
     FM250000 20010KT 3SM BR BKN005 OVC025=



000
FTUS42 KILM 241400 AAA
TAFMYR
TAF AMD
KMYR 241417Z 2414/2512 21007KT 2SM BR VCSH BKN002
     FM241600 21011G20KT 6SM BR VCSH BKN007 OVC015
     FM250000 22008KT 2SM BR SCT003 BKN008=



000
FTUS42 KILM 241400 AAA
TAFFLO
TAF AMD
KFLO 241417Z 2414/2512 21008KT 6SM BR BKN012
     FM242100 22006KT 6SM BR BKN007 OVC015
     FM250000 20010KT 3SM BR BKN005 OVC025=



000
FTUS42 KILM 241400 AAA
TAFCRE
TAF AMD
KCRE 241416Z 2414/2512 21007KT 1SM BR OVC002
     FM241700 21011G20KT 5SM BR VCSH BKN007 OVC015
     FM250000 22008KT 2SM BR SCT003 BKN008=



000
FTUS42 KILM 241100 CCA
TAFMYR
TAF COR
KMYR 241152Z 2412/2512 21007KT 1SM BR VCSH BKN002
     FM241400 21012G16KT 5SM -RA BR BKN006
     FM241600 21011G20KT 6SM BR VCSH BKN007 OVC015
     FM250000 22008KT 2SM BR SCT003 BKN008=



000
FTUS42 KILM 241100 CCA
TAFFLO
TAF COR
KFLO 241152Z 2412/2512 21008KT 6SM BR BKN006
     FM241700 22012G20KT P6SM VCSH BKN006
     FM242100 22006KT 6SM BR SCT007 OVC015
     FM250000 20010KT 3SM BR BKN005 OVC025=



000
FTUS42 KILM 241100 CCA
TAFILM
TAF COR
KILM 241151Z 2412/2512 20008KT 6SM -RA VCSH BKN005
     FM241500 21014G20KT P6SM VCSH BKN007 OVC015
     FM250000 20010KT 3SM BR BKN003 OVC012=



000
FTUS42 KILM 241100 CCA
TAFCRE
TAF COR
KCRE 241151Z 2412/2512 21007KT 1/2SM FG VV002
     FM241400 21012G16KT 5SM -RA BR BKN006
     FM241600 21011G20KT 5SM BR VCSH BKN007 OVC015
     FM250000 22008KT 2SM BR SCT003 BKN008=



000
FTUS42 KILM 241100
TAFCRE
TAF
KCRE 241120Z 2412/2512 21007KT P6SM VCSH BKN017
     FM241300 21012G16KT 5SM -RA BR BKN006
     FM241600 21011G20KT 5SM BR VCSH BKN007 OVC015
     FM250000 22008KT 2SM BR SCT003 BKN008=



000
FTUS42 KILM 241100
TAFFLO
TAF
KFLO 241120Z 2412/2512 21008KT 6SM BR BKN004
     FM241700 22012G20KT P6SM VCSH BKN006
     FM242100 22006KT 6SM BR SCT007 OVC015
     FM250000 20010KT 3SM BR BKN005 OVC025=



000
FTUS42 KILM 241100
TAFILM
TAF
KILM 241120Z 2412/2512 20008KT 6SM -RA VCSH BKN024
     FM241500 21014G20KT P6SM VCSH BKN007 OVC015
     FM250000 20010KT 3SM BR BKN003 OVC012=



000
FTUS42 KILM 241100
TAFMYR
TAF
KMYR 241120Z 2412/2512 21007KT P6SM VCSH BKN010
     FM241300 21012G16KT 5SM -RA BR BKN006
     FM241600 21011G20KT 6SM BR VCSH BKN007 OVC015
     FM250000 22008KT 2SM BR SCT003 BKN008=



000
FTUS42 KILM 241100
TAFLBT
TAF
KLBT 241120Z 2412/2512 20006KT P6SM VCSH BKN007
     FM241700 22012G20KT P6SM VCSH BKN006
     FM242100 22006KT 6SM BR SCT007 OVC015
     FM250000 20010KT 3SM BR BKN005 OVC025=



000
FTUS42 KILM 241000 AAC
TAFCRE
TAF AMD
KCRE 241040Z 2411/2506 21007KT P6SM VCSH BKN017
     FM241300 21012G16KT 5SM -RA BR BKN006
     FM241600 21011G20KT 6SM BR VCSH SCT007 OVC015
     FM250000 22008KT 2SM BR SCT003 BKN008=



000
FTUS42 KILM 241000 AAB
TAFLBT
TAF AMD
KLBT 241040Z 2411/2506 20006KT P6SM VCSH BKN007
     FM241700 22012G19KT P6SM VCSH BKN025 OVC050
     FM250000 20008KT 4SM BR SCT003 OVC015=



000
FTUS42 KILM 241000 AAC
TAFMYR
TAF AMD
KMYR 241039Z 2411/2506 21007KT P6SM VCSH BKN012
     FM241300 21012G16KT 5SM -RA BR BKN006
     FM241600 21011G20KT 6SM BR VCSH SCT007 OVC015
     FM250000 22008KT 2SM BR SCT003 BKN008
      AMD LTD TO CLD VIS AND WIND TIL 241100=



000
FTUS42 KILM 241000 AAB
TAFILM
TAF AMD
KILM 241039Z 2411/2506 20008KT 6SM -RA VCSH BKN024
     FM241600 21014G20KT P6SM VCSH SCT007 OVC015
     FM250000 20010KT 3SM BR SCT003 OVC012=



000
FTUS42 KILM 241000 AAB
TAFFLO
TAF AMD
KFLO 241039Z 2411/2506 22009KT 6SM BR BKN004
     FM241700 22012G20KT P6SM VCSH OVC020
     FM242100 22006KT 6SM BR SCT007 OVC015
     FM250000 20010KT 4SM BR SCT008 OVC025=



000
FTUS42 KILM 241000 AAB
TAFCRE
TAF AMD
KCRE 241034Z 2411/2506 21007KT P6SM VCSH SCT035 BKN050 OVC060
     FM241300 21012G16KT 5SM -RA BR BKN006
     FM241600 21011G20KT 6SM BR VCSH SCT007 OVC015
     FM250000 22008KT 2SM BR SCT003 BKN008=



000
FTUS42 KILM 241000 AAB
TAFMYR
TAF AMD
KMYR 241034Z 2411/2506 21007KT P6SM VCSH SCT035 BKN050 OVC060
     FM241300 21012G16KT 5SM -RA BR BKN006
     FM241600 21011G20KT 6SM BR VCSH SCT007 OVC015
     FM250000 22008KT 2SM BR SCT003 BKN008
      AMD LTD TO CLD VIS AND WIND TIL 241100=



000
FTUS42 KILM 240900 AAA
TAFFLO
TAF AMD
KFLO 240918Z 2409/2506 18006KT 5SM BR VCSH OVC013
     FM241100 22009KT 3SM BR BKN009
     FM241700 22012G20KT P6SM VCSH OVC020
     FM242100 22006KT 6SM BR SCT007 OVC015
     FM250000 20010KT 4SM BR SCT008 OVC025=



000
FTUS42 KILM 240900 AAA
TAFILM
TAF AMD
KILM 240917Z 2409/2506 20008KT 6SM -RA VCSH SCT030 BKN045 OVC060
     FM241600 21014G20KT P6SM VCSH SCT007 OVC015
     FM250000 20010KT 3SM BR SCT003 OVC012=



000
FTUS42 KILM 240900 AAA
TAFLBT
TAF AMD
KLBT 240917Z 2409/2506 20006KT P6SM VCSH FEW018 BKN035
     FM241700 22012G19KT P6SM VCSH BKN025 OVC050
     FM250000 20008KT 4SM BR SCT003 OVC015=



000
FTUS42 KILM 240900 AAA
TAFCRE
TAF AMD
KCRE 240915Z 2409/2506 21007KT P6SM SCT035 BKN050 OVC060
      TEMPO 2409/2411 1SM BR BKN004
     FM241100 21012G16KT 5SM BR BKN006
     FM241600 21011G20KT 6SM BR VCSH SCT007 OVC015
     FM250000 22008KT 2SM BR SCT003 BKN008=



000
FTUS42 KILM 240900 AAA
TAFMYR
TAF AMD
KMYR 240915Z 2409/2506 21006KT P6SM SCT027 BKN035 OVC050
      TEMPO 2409/2411 2SM BR BKN009
     FM241100 21010G16KT 5SM BR BKN006
     FM241600 19011G22KT P6SM VCSH SCT007 OVC015
     FM250000 22009KT 2SM BR SCT003 BKN008
      AMD LTD TO CLD VIS AND WIND TIL 241100=



000
FTUS42 KILM 240500
TAFILM
TAF
KILM 240527Z 2406/2506 20012KT P6SM VCSH SCT006 BKN016
     FM241000 21012KT P6SM BKN006
     FM241600 21014G20KT P6SM VCSH SCT007 OVC015
     FM250000 20010KT 3SM BR SCT003 OVC012=



000
FTUS42 KILM 240500
TAFFLO
TAF
KFLO 240527Z 2406/2506 21010KT 6SM BR VCSH BKN006
     FM241100 22009KT 3SM BR BKN006
     FM241700 22012G20KT P6SM VCSH OVC020
     FM242100 22006KT 6SM BR SCT007 OVC015
     FM250000 20010KT 4SM BR SCT008 OVC025=



000
FTUS42 KILM 240500
TAFCRE
TAF
KCRE 240527Z 2406/2506 21010KT 6SM BR BKN010 OVC025
      TEMPO 2407/2411 1SM BR BKN004
     FM241100 21012G16KT 5SM BR BKN006
     FM241600 21011G20KT 6SM BR VCSH SCT007 OVC015
     FM250000 22008KT 2SM BR SCT003 BKN008=



000
FTUS42 KILM 240500
TAFMYR
TAF
KMYR 240527Z 2406/2506 19010KT 6SM BR BKN006 BKN014
      TEMPO 2407/2411 2SM BR BKN004
     FM241100 21010G16KT 5SM BR BKN006
     FM241600 19011G22KT P6SM VCSH SCT007 OVC015
     FM250000 22009KT 2SM BR SCT003 BKN008
      AMD LTD TO CLD VIS AND WIND TIL 241100=



000
FTUS42 KILM 240500
TAFLBT
TAF
KLBT 240527Z 2406/2506 21012KT 6SM BR VCSH BKN006
     FM241100 22009KT 3SM BR BKN006
     FM241700 22012G19KT P6SM VCSH BKN025 OVC050
     FM250000 20008KT 4SM BR SCT003 OVC015=



000
FTUS42 KILM 240400 AAA
TAFFLO
TAF AMD
KFLO 240404Z 2404/2424 22015KT 6SM -RA BR SCT008 BKN020
     FM240600 21012KT 4SM BR VCSH BKN006
     FM241100 22011KT 3SM BR BKN006
     FM241700 22012G18KT P6SM OVC020
     FM242100 22006KT 6SM BR SCT025 OVC050=



000
FTUS42 KILM 240400 AAA
TAFFLO
TAF AMD
KFLO 240404Z 2404/2424 22015KT 6SM -RA BR SCT008 BKN020
     FM240600 21012KT 4SM BR VCSH BKN006
     FM241100 22011KT 3SM BR BKN006
     FM241700 22012G18KT P6SM OVC020
     FM242100 22006KT 6SM BR SCT025 OVC050=



000
FTUS42 KILM 240100 AAA
TAFCRE
TAF AMD
KCRE 240119Z 2401/2424 14010G20KT P6SM VCSH FEW006 SCT020 OVC030
     FM240200 17017KT 4SM -SHRA BR BKN010 OVC025
      TEMPO 2402/2406 20015G30KT 1SM +TSRA BKN014CB
     FM240700 20012KT P6SM VCSH SCT006 BKN016
      TEMPO 2407/2411 1SM BR BKN004
     FM241100 21012G16KT 5SM BR BKN006
     FM241600 21011KT P6SM SCT007 OVC015=



000
FTUS42 KILM 232300
TAFCRE
TAF
KCRE 232326Z 2400/2424 14010G15KT 3SM RA BR BKN006 OVC015
     FM240200 17017KT 4SM -SHRA BR BKN010 OVC025
      TEMPO 2402/2406 20015G30KT 1SM +TSRA BKN014CB
     FM240700 20012KT P6SM VCSH SCT006 BKN016
      TEMPO 2407/2411 1SM BR BKN004
     FM241100 21012G16KT 5SM BR BKN006
     FM241600 21011KT P6SM SCT007 OVC015=



000
FTUS42 KILM 232300
TAFMYR
TAF
KMYR 232326Z 2400/2424 14015G19KT 3SM -RA BR BKN006 OVC015
     FM240200 17017KT 4SM -SHRA BR BKN006 BKN010 OVC025
      TEMPO 2402/2405 20015G30KT 1SM +TSRA BKN014CB
     FM240700 20012KT P6SM VCSH SCT006 BKN016
      TEMPO 2407/2411 2SM BR BKN004
     FM241100 21012G16KT 5SM BR BKN006
     FM241600 19011KT P6SM SCT007 OVC015
      AMD LTD TO CLD VIS AND WIND 2404/2411=



000
FTUS42 KILM 232300
TAFLBT
TAF
KLBT 232326Z 2400/2424 13011G20KT 6SM -RA BR BKN009 OVC012
      TEMPO 2402/2406 20015G25KT 2SM +SHRA BKN012
     FM240600 21012KT 4SM BR VCSH BKN006
     FM241100 22011KT 3SM BR BKN006
     FM241700 22012G19KT P6SM BKN025 OVC050=



000
FTUS42 KILM 232300
TAFFLO
TAF
KFLO 232326Z 2400/2424 16015KT 3SM -RA BR SCT004 BKN008 OVC012
      TEMPO 2401/2405 20015G25KT 2SM +TSRA BKN012CB
     FM240600 21012KT 4SM BR VCSH BKN006
     FM241100 22011KT 3SM BR BKN006
     FM241700 22012G18KT P6SM OVC020
     FM242100 22006KT 6SM BR SCT025 OVC050=



000
FTUS42 KILM 232300
TAFILM
TAF
KILM 232326Z 2400/2424 13011G20KT P6SM VCSH SCT007 BKN020 BKN040
     FM240200 17017KT 4SM -SHRA BR SCT007 BKN010 OVC025
      TEMPO 2403/2407 20015G30KT 1SM +TSRA SCT007 BKN015CB
     FM240700 20012KT P6SM VCSH SCT006 BKN016
     FM241000 21011KT P6SM BKN006
     FM241600 21014G20KT P6SM SCT007 OVC015=



000
FTUS42 KILM 231900 AAA
TAFILM
TAF AMD
KILM 231956Z 2320/2418 12018G30KT P6SM VCSH BKN025 BKN035
     FM240200 17017KT 3SM SHRA BR BKN010 OVC025
      TEMPO 2402/2405 20020G30KT 1SM +TSRA BKN014CB
     FM240700 20012KT P6SM VCSH SCT006 BKN016
     FM241100 21012G16KT P6SM BKN006=



000
FTUS42 KILM 231700 CCA
TAFLBT
TAF COR
KLBT 231723Z 2318/2418 12010KT 5SM -RA BR SCT006 OVC012
     FM231900 17012KT 3SM -RA BR SCT004 BKN008 OVC012
      TEMPO 2400/2404 20015G25KT 2SM +SHRA BKN012
     FM240600 21012KT 4SM BR VCSH BKN006
     FM241100 22012G17KT 3SM BR BKN006=



000
FTUS42 KILM 231700 CCA
TAFMYR
TAF COR
KMYR 231722Z 2318/2418 12009KT 4SM RA BR BKN006 BKN035
     FM232000 14010KT 3SM RA BR BKN006 OVC015
     FM240200 17017KT 3SM SHRA BR BKN010 OVC025
      TEMPO 2402/2405 20020G30KT 1SM +TSRA BKN014CB
     FM240700 20012KT P6SM VCSH SCT006 BKN016
      TEMPO 2407/2411 2SM BR BKN004
     FM241100 21012G16KT P6SM BKN006=



000
FTUS42 KILM 231700
TAFCRE
TAF
KCRE 231720Z 2318/2418 12009KT 4SM RA BR SCT012 BKN035
     FM232000 14010KT 3SM RA BR BKN006 OVC015
     FM240200 17017KT 3SM SHRA BR BKN010 OVC025
      TEMPO 2402/2405 20020G30KT 1SM +TSRA BKN014CB
     FM240700 20012KT P6SM VCSH SCT006 BKN016
      TEMPO 2407/2411 2SM BR BKN004
     FM241100 21012G16KT P6SM BKN006=



000
FTUS42 KILM 231700
TAFMYR
TAF
KMYR 231720Z 2318/2418 12009KT 4SM RA BR SCT012 BKN035
     FM232000 14010KT 3SM RA BR BKN006 OVC015
     FM240200 17017KT 3SM SHRA BR BKN010 OVC025
      TEMPO 2402/2405 20020G30KT 1SM +TSRA BKN014CB
     FM240700 20012KT P6SM VCSH SCT006 BKN016
      TEMPO 2407/2411 2SM BR BKN004
     FM241100 21012G16KT P6SM BKN006=



000
FTUS42 KILM 231700
TAFLBT
TAF
KLBT 231720Z 2318/2418 12010KT 2SM -RA BR BKN006 OVC012
     FM240000 17012KT 3SM -RA BR SCT004 BKN008 OVC012
      TEMPO 2400/2404 20015G25KT 2SM +SHRA BKN012
     FM240600 21012KT 4SM BR VCSH BKN006
     FM241100 22012G17KT 3SM BR BKN006=



000
FTUS42 KILM 231700
TAFFLO
TAF
KFLO 231720Z 2318/2418 12010KT 2SM -RA BR BKN006 OVC012
     FM240000 17012KT 3SM -RA BR SCT004 BKN008 OVC012
      TEMPO 2400/2404 20015G25KT 2SM +SHRA BKN012
     FM240600 21012KT 4SM BR VCSH BKN006
     FM241100 22012G17KT 3SM BR BKN006=



000
FTUS42 KILM 231700
TAFILM
TAF
KILM 231720Z 2318/2418 13009KT 4SM RA BR SCT012 BKN035
     FM232000 14010KT 3SM RA BR BKN006 OVC015
     FM240200 17017KT 3SM SHRA BR BKN010 OVC025
      TEMPO 2402/2405 20020G30KT 1SM +TSRA BKN014CB
     FM240700 20012KT P6SM VCSH SCT006 BKN016
     FM241100 21012G16KT P6SM BKN006=



000
FTUS42 KILM 231200 CCA
TAFFLO
TAF COR
KFLO 231247Z 2312/2412 06004KT 5SM -RA BR SCT040 BKN070
      TEMPO 2312/2316 2SM BR
     FM231600 07005KT 5SM -RA BKN020 OVC035
     FM231700 10010KT 2SM -RA BR BKN006 OVC012
     FM240000 17015KT 3SM -RA BR SCT004 BKN008 OVC012
     FM240500 21012KT P6SM VCSH BKN016=



000
FTUS42 KILM 231100
TAFMYR
TAF
KMYR 231120Z 2312/2412 VRB03KT 6SM -RA SCT040 BKN100
     FM231400 11010KT 6SM -RA SCT010 BKN025
     FM231900 12014KT 3SM RA BR BKN007 OVC015
     FM240100 17018KT 3SM -RA BR BKN007 OVC015
     FM240600 20012KT P6SM VCSH BKN016=



000
FTUS42 KILM 231100
TAFLBT
TAF
KLBT 231120Z 2312/2412 06004KT 5SM -RA BR SCT040 BKN070
     FM231300 07005KT 5SM -RA BKN020 OVC035
     FM231700 10010KT 2SM -RA BR BKN006 OVC012
     FM240000 17015KT 3SM -RA BR SCT004 BKN008 OVC012
     FM240500 21012KT P6SM VCSH BKN016=



000
FTUS42 KILM 231100
TAFCRE
TAF
KCRE 231120Z 2312/2412 VRB03KT 6SM -RA SCT040 BKN100
     FM231400 11010KT 6SM -RA SCT010 BKN025
     FM231900 12014KT 3SM RA BR BKN007 OVC015
     FM240100 17018KT 3SM -RA BR BKN007 OVC015
     FM240600 20012KT P6SM VCSH BKN016=



000
FTUS42 KILM 231100
TAFFLO
TAF
KFLO 231120Z 2312/2412 06004KT 5SM -RA BR SCT040 BKN070
     FM231300 07005KT 5SM -RA BKN020 OVC035
     FM231700 10010KT 2SM -RA BR BKN006 OVC012
     FM240000 17015KT 3SM -RA BR SCT004 BKN008 OVC012
     FM240500 21012KT P6SM VCSH BKN016=



000
FTUS42 KILM 231100
TAFILM
TAF
KILM 231120Z 2312/2412 VRB03KT 6SM -RA SCT045 BKN100
     FM231500 12005KT 5SM -RA SCT012 BKN025
     FM232000 13010KT 3SM RA BR BKN006 OVC015
     FM240200 17017KT 3SM SHRA BR BKN010 OVC025
     FM240700 20012KT P6SM VCSH BKN016=



000
FTUS42 KILM 230500
TAFFLO
TAF
KFLO 230539Z 2306/2406 VRB03KT P6SM BKN080
     FM231100 06004KT P6SM VCSH SCT040 BKN060
     FM231300 07005KT 6SM -RA BKN020 OVC035
     FM231700 10010KT 2SM -RA BR BKN006 OVC012
     FM240000 17015KT 3SM -RA BR SCT004 BKN008 OVC012=



000
FTUS42 KILM 230500
TAFMYR
TAF
KMYR 230539Z 2306/2406 VRB04KT P6SM BKN100
     FM231300 10004KT P6SM VCSH SCT040 BKN060
     FM231500 11010KT 6SM -RA SCT010 BKN020
     FM231800 13014KT 3SM RA BR BKN007 BKN012
     FM240100 17019KT 4SM -RA BR BKN007 OVC015
      AMD LTD TO CLD VIS AND WIND TIL 231100=



000
FTUS42 KILM 230500
TAFILM
TAF
KILM 230539Z 2306/2406 VRB03KT P6SM BKN100
     FM231300 11004KT P6SM VCSH SCT040 BKN060
     FM231600 12005KT 6SM -RA SCT012 BKN025
     FM232000 13010KT 3SM RA BR BKN006 OVC015
     FM240200 17017KT 3SM -RA BR BKN010 OVC025=



000
FTUS42 KILM 230500
TAFCRE
TAF
KCRE 230539Z 2306/2406 VRB03KT P6SM BKN100
     FM231300 10004KT P6SM VCSH SCT040 BKN060
     FM231500 11010KT 6SM -RA SCT010 BKN025
     FM231900 12014KT 3SM RA BR BKN007 OVC015
     FM240100 17018KT 3SM -RA BR BKN007 OVC015=



000
FTUS42 KILM 230500
TAFLBT
TAF
KLBT 230539Z 2306/2406 VRB03KT P6SM SCT080 BKN120
     FM231300 07004KT P6SM VCSH SCT035 BKN060
     FM231500 09008KT 6SM -RA BKN020 OVC035
     FM231800 11010KT 2SM -RA BR BKN006 OVC012
     FM240100 17015KT 2SM -RA BR SCT004 BKN008 OVC012=



000
FTUS42 KILM 222300
TAFLBT
TAF
KLBT 222328Z 2300/2324 VRB05KT P6SM SKC
     FM230400 VRB03KT P6SM SCT100 BKN200
     FM231300 07004KT P6SM VCSH SCT040 BKN090
     FM231500 09008KT 6SM -RA SCT015 BKN025 BKN040
     FM231700 11006KT 3SM -RA BR SCT007 BKN015=



000
FTUS42 KILM 222300
TAFCRE
TAF
KCRE 222328Z 2300/2324 09006KT P6SM SKC
     FM230600 VRB03KT P6SM SCT100 BKN200
     FM231300 09004KT P6SM VCSH SCT040 BKN090
     FM231500 11010KT 6SM -RA SCT025 BKN040
     FM231900 12005KT 4SM RA BR SCT007 BKN014=



000
FTUS42 KILM 222300
TAFILM
TAF
KILM 222328Z 2300/2324 08004KT P6SM SKC
     FM230500 VRB03KT P6SM SCT100 BKN200
     FM231300 11004KT P6SM VCSH SCT040 BKN090
     FM231500 13005KT 6SM -RA SCT025 BKN040
     FM231900 11005KT 5SM -RA BR SCT015 BKN020=



000
FTUS42 KILM 222300
TAFMYR
TAF
KMYR 222328Z 2300/2324 09007KT P6SM SKC
     FM230500 VRB04KT P6SM SCT100 BKN200
     FM231300 08004KT P6SM VCSH SCT040 BKN090
     FM231500 10005KT 6SM -RA SCT025 BKN040
     FM231900 13005KT 3SM RA BR SCT007 BKN014
      AMD LTD TO CLD VIS AND WIND 2304/2311=



000
FTUS42 KILM 222300
TAFFLO
TAF
KFLO 222328Z 2300/2324 VRB05KT P6SM SKC
     FM230400 VRB03KT P6SM SCT100 BKN200
     FM231100 06004KT P6SM VCSH SCT040 BKN090
     FM231300 07005KT 6SM -RA SCT020 BKN040
     FM231700 08005KT 3SM -RA BR BKN007 BKN015=



    US Dept of Commerce
    National Oceanic and Atmospheric Administration
    National Weather Service
    1325 East West Highway
    Silver Spring, MD 20910
    Page Author: NWS Internet Services Team
Disclaimer
Information Quality
Credits
Glossary
Privacy Policy
Freedom of Information Act (FOIA)
About Us
Career Opportunities